DAL8883 KLGB-KSFO
Flight info
| Callsign | DAL8883 |
|---|---|
| Flight time | N/A |
| Altitude | 40000 |
| Route | VTU RZS SERFR SERFR4 |
| Aircraft | B752/M-L/LB1 |
Departure
| Time | 2026-05-04 04:12 |
|---|---|
| Airport | Long Beach International Airport (KLGB) |
Arrival
| Time | N/A |
|---|---|
| Airport | San Francisco International Airport (KSFO) |
| Time | Latitude | Longitude | Altitude | Speed | Heading |
|---|---|---|---|---|---|
| 2026-05-04 03:49 | 33.81258 | -118.15459 | 48 ft | 0 kts | 90° |
| 2026-05-04 04:01 | 33.81262 | -118.15453 | 48 ft | 1 kts | 34° |
| 2026-05-04 04:01 | 33.81277 | -118.15466 | 48 ft | 7 kts | 297° |
| 2026-05-04 04:01 | 33.81311 | -118.15514 | 48 ft | 12 kts | 333° |
| 2026-05-04 04:01 | 33.81334 | -118.15513 | 48 ft | 2 kts | 83° |
| 2026-05-04 04:02 | 33.81312 | -118.15477 | 48 ft | 10 kts | 117° |
| 2026-05-04 04:02 | 33.81309 | -118.15372 | 46 ft | 19 kts | 90° |
| 2026-05-04 04:02 | 33.81309 | -118.15230 | 45 ft | 20 kts | 90° |
| 2026-05-04 04:02 | 33.81307 | -118.15111 | 44 ft | 20 kts | 91° |
| 2026-05-04 04:03 | 33.81308 | -118.14985 | 42 ft | 21 kts | 90° |
| 2026-05-04 04:03 | 33.81308 | -118.14857 | 42 ft | 20 kts | 95° |
| 2026-05-04 04:03 | 33.81300 | -118.14743 | 40 ft | 17 kts | 118° |
| 2026-05-04 04:03 | 33.81235 | -118.14658 | 38 ft | 17 kts | 129° |
| 2026-05-04 04:04 | 33.81175 | -118.14574 | 37 ft | 17 kts | 132° |
| 2026-05-04 04:04 | 33.81111 | -118.14495 | 35 ft | 17 kts | 132° |
| 2026-05-04 04:04 | 33.81050 | -118.14418 | 35 ft | 16 kts | 135° |
| 2026-05-04 04:04 | 33.80986 | -118.14342 | 35 ft | 15 kts | 134° |
| 2026-05-04 04:05 | 33.80925 | -118.14268 | 34 ft | 15 kts | 135° |
| 2026-05-04 04:05 | 33.80863 | -118.14192 | 32 ft | 15 kts | 135° |
| 2026-05-04 04:05 | 33.80798 | -118.14120 | 32 ft | 14 kts | 134° |
| 2026-05-04 04:05 | 33.80739 | -118.14041 | 32 ft | 13 kts | 132° |
| 2026-05-04 04:06 | 33.80682 | -118.13973 | 32 ft | 12 kts | 134° |
| 2026-05-04 04:06 | 33.80656 | -118.13937 | 32 ft | 0 kts | 125° |
| 2026-05-04 04:10 | 33.80653 | -118.13931 | 32 ft | 5 kts | 116° |
| 2026-05-04 04:10 | 33.80665 | -118.13863 | 32 ft | 12 kts | 39° |
| 2026-05-04 04:10 | 33.80729 | -118.13870 | 32 ft | 12 kts | 321° |
| 2026-05-04 04:11 | 33.80863 | -118.14030 | 32 ft | 60 kts | 314° |
| 2026-05-04 04:11 | 33.81221 | -118.14465 | 35 ft | 118 kts | 314° |
| 2026-05-04 04:11 | 33.81679 | -118.15053 | 120 ft | 148 kts | 307° |
| 2026-05-04 04:11 | 33.82206 | -118.15829 | 496 ft | 155 kts | 303° |
| 2026-05-04 04:12 | 33.82751 | -118.16676 | 740 ft | 179 kts | 302° |
| 2026-05-04 04:12 | 33.83045 | -118.17798 | 946 ft | 198 kts | 271° |
| 2026-05-04 04:12 | 33.82912 | -118.19187 | 1314 ft | 217 kts | 262° |
| 2026-05-04 04:12 | 33.82752 | -118.20473 | 1619 ft | 213 kts | 261° |
| 2026-05-04 04:13 | 33.82568 | -118.21959 | 2074 ft | 214 kts | 261° |
| 2026-05-04 04:13 | 33.82394 | -118.23360 | 2488 ft | 219 kts | 262° |
| 2026-05-04 04:13 | 33.82219 | -118.24748 | 2887 ft | 222 kts | 261° |
| 2026-05-04 04:13 | 33.82045 | -118.26122 | 3446 ft | 221 kts | 261° |
| 2026-05-04 04:14 | 33.81879 | -118.27429 | 4130 ft | 225 kts | 262° |
| 2026-05-04 04:14 | 33.81828 | -118.27834 | 4409 ft | 223 kts | 261° |
| 2026-05-04 04:15 | 33.81599 | -118.29712 | 5689 ft | 220 kts | 261° |
| 2026-05-04 04:15 | 33.81381 | -118.31536 | 6565 ft | 231 kts | 262° |
| 2026-05-04 04:15 | 33.81170 | -118.33315 | 7495 ft | 234 kts | 261° |
| 2026-05-04 04:15 | 33.81006 | -118.34782 | 8343 ft | 231 kts | 261° |
| 2026-05-04 04:16 | 33.80851 | -118.36286 | 9061 ft | 235 kts | 262° |
| 2026-05-04 04:16 | 33.80673 | -118.37972 | 9857 ft | 236 kts | 261° |
| 2026-05-04 04:16 | 33.80515 | -118.39566 | 10594 ft | 237 kts | 262° |
| 2026-05-04 04:16 | 33.80344 | -118.41306 | 11412 ft | 237 kts | 262° |
| 2026-05-04 04:17 | 33.80201 | -118.42792 | 12100 ft | 236 kts | 261° |
| 2026-05-04 04:17 | 33.80060 | -118.44405 | 12847 ft | 234 kts | 262° |
| 2026-05-04 04:17 | 33.79909 | -118.46075 | 13536 ft | 236 kts | 261° |
| 2026-05-04 04:17 | 33.79772 | -118.47650 | 14198 ft | 239 kts | 262° |
| 2026-05-04 04:18 | 33.79623 | -118.49409 | 14500 ft | 261 kts | 262° |
| 2026-05-04 04:18 | 33.79453 | -118.51354 | 14532 ft | 292 kts | 261° |
| 2026-05-04 04:18 | 33.79226 | -118.53831 | 14618 ft | 324 kts | 262° |
| 2026-05-04 04:18 | 33.79001 | -118.56349 | 15633 ft | 322 kts | 262° |
| 2026-05-04 04:19 | 33.78789 | -118.58799 | 17361 ft | 295 kts | 262° |
| 2026-05-04 04:19 | 33.78678 | -118.61040 | 17838 ft | 309 kts | 270° |
| 2026-05-04 04:19 | 33.79291 | -118.63475 | 18145 ft | 340 kts | 294° |
| 2026-05-04 04:19 | 33.80717 | -118.65337 | 19592 ft | 339 kts | 314° |
| 2026-05-04 04:20 | 33.82378 | -118.66625 | 20249 ft | 340 kts | 311° |
| 2026-05-04 04:20 | 33.83712 | -118.68278 | 20312 ft | 338 kts | 296° |
| 2026-05-04 04:20 | 33.84918 | -118.70196 | 21013 ft | 339 kts | 297° |
| 2026-05-04 04:20 | 33.86218 | -118.72286 | 21374 ft | 350 kts | 297° |
| 2026-05-04 04:21 | 33.87608 | -118.74506 | 21715 ft | 361 kts | 297° |
| 2026-05-04 04:21 | 33.89000 | -118.76701 | 22705 ft | 352 kts | 297° |
| 2026-05-04 04:21 | 33.90127 | -118.78503 | 23295 ft | 351 kts | 296° |